sensor_id;sensor_type;location;lat;lon;timestamp;pressure;altitude;pressure_sealevel;temperature;humidity
68988;BME280;56038;46.080;11.116;2023-04-19T00:00:53;99383.78;;;14.94;46.68
68988;BME280;56038;46.080;11.116;2023-04-19T00:06:00;99377.84;;;14.90;46.70
68988;BME280;56038;46.080;11.116;2023-04-19T00:11:07;99377.84;;;14.90;46.46
68988;BME280;56038;46.080;11.116;2023-04-19T00:16:10;99371.66;;;14.91;46.72
68988;BME280;56038;46.080;11.116;2023-04-19T00:21:12;99373.53;;;14.89;46.36
68988;BME280;56038;46.080;11.116;2023-04-19T00:26:14;99380.59;;;14.73;47.17
68988;BME280;56038;46.080;11.116;2023-04-19T00:31:17;99372.28;;;14.65;47.60
68988;BME280;56038;46.080;11.116;2023-04-19T00:36:18;99367.97;;;14.64;48.17
68988;BME280;56038;46.080;11.116;2023-04-19T00:41:20;99371.97;;;14.55;48.23
68988;BME280;56038;46.080;11.116;2023-04-19T00:46:23;99367.31;;;14.45;49.88
68988;BME280;56038;46.080;11.116;2023-04-19T00:51:25;99370.84;;;14.28;51.36
68988;BME280;56038;46.080;11.116;2023-04-19T00:56:28;99365.13;;;13.88;53.97
68988;BME280;56038;46.080;11.116;2023-04-19T01:01:32;99360.16;;;13.99;52.19
68988;BME280;56038;46.080;11.116;2023-04-19T01:06:34;99358.81;;;14.08;51.95
68988;BME280;56038;46.080;11.116;2023-04-19T01:11:37;99354.16;;;14.13;51.49
68988;BME280;56038;46.080;11.116;2023-04-19T01:16:40;99357.13;;;14.07;52.74
68988;BME280;56038;46.080;11.116;2023-04-19T01:21:41;99350.94;;;14.08;52.35
68988;BME280;56038;46.080;11.116;2023-04-19T01:26:45;99343.22;;;14.05;52.49
68988;BME280;56038;46.080;11.116;2023-04-19T01:31:47;99344.06;;;14.05;52.87
68988;BME280;56038;46.080;11.116;2023-04-19T01:36:52;99340.25;;;14.11;56.66
68988;BME280;56038;46.080;11.116;2023-04-19T01:41:55;99340.25;;;14.11;52.53
68988;BME280;56038;46.080;11.116;2023-04-19T01:46:57;99349.16;;;14.08;53.48
68988;BME280;56038;46.080;11.116;2023-04-19T01:51:58;99344.56;;;14.12;53.42
68988;BME280;56038;46.080;11.116;2023-04-19T01:57:01;99347.19;;;14.12;53.51
68988;BME280;56038;46.080;11.116;2023-04-19T02:02:05;99343.28;;;14.03;54.22
68988;BME280;56038;46.080;11.116;2023-04-19T02:07:07;99348.78;;;13.99;53.84
68988;BME280;56038;46.080;11.116;2023-04-19T02:12:10;99350.16;;;13.90;54.21
68988;BME280;56038;46.080;11.116;2023-04-19T02:17:11;99350.63;;;13.81;54.57
68988;BME280;56038;46.080;11.116;2023-04-19T02:22:13;99350.44;;;13.68;55.27
68988;BME280;56038;46.080;11.116;2023-04-19T02:27:16;99341.03;;;13.64;55.04
68988;BME280;56038;46.080;11.116;2023-04-19T02:32:18;99344.13;;;13.55;54.97
68988;BME280;56038;46.080;11.116;2023-04-19T02:37:20;99339.13;;;13.51;55.08
68988;BME280;56038;46.080;11.116;2023-04-19T02:42:23;99341.47;;;13.39;55.70
68988;BME280;56038;46.080;11.116;2023-04-19T02:47:24;99338.84;;;13.39;55.61
68988;BME280;56038;46.080;11.116;2023-04-19T02:52:26;99342.72;;;13.32;55.38
68988;BME280;56038;46.080;11.116;2023-04-19T02:57:29;99349.16;;;13.27;55.35
68988;BME280;56038;46.080;11.116;2023-04-19T03:02:31;99352.16;;;13.19;55.33
68988;BME280;56038;46.080;11.116;2023-04-19T03:07:32;99340.47;;;13.07;54.99
68988;BME280;56038;46.080;11.116;2023-04-19T03:12:36;99341.97;;;12.96;55.47
68988;BME280;56038;46.080;11.116;2023-04-19T03:17:37;99339.78;;;12.86;55.62
68988;BME280;56038;46.080;11.116;2023-04-19T03:22:39;99336.06;;;12.73;55.84
68988;BME280;56038;46.080;11.116;2023-04-19T03:27:42;99335.06;;;12.58;56.17
68988;BME280;56038;46.080;11.116;2023-04-19T03:32:47;99333.66;;;12.51;56.41
68988;BME280;56038;46.080;11.116;2023-04-19T03:37:48;99325.31;;;12.43;56.40
68988;BME280;56038;46.080;11.116;2023-04-19T03:42:51;99329.16;;;12.36;56.02
68988;BME280;56038;46.080;11.116;2023-04-19T03:47:53;99333.06;;;12.27;56.00
68988;BME280;56038;46.080;11.116;2023-04-19T03:52:54;99337.69;;;12.22;55.67
68988;BME280;56038;46.080;11.116;2023-04-19T03:57:57;99331.44;;;12.25;55.73
68988;BME280;56038;46.080;11.116;2023-04-19T04:02:59;99328.81;;;12.25;55.21
68988;BME280;56038;46.080;11.116;2023-04-19T04:08:01;99345.59;;;12.21;55.62
68988;BME280;56038;46.080;11.116;2023-04-19T04:13:04;99348.66;;;12.12;55.70
68988;BME280;56038;46.080;11.116;2023-04-19T04:18:07;99348.88;;;12.07;55.52
68988;BME280;56038;46.080;11.116;2023-04-19T04:23:08;99347.25;;;12.05;55.62
68988;BME280;56038;46.080;11.116;2023-04-19T04:28:11;99349.88;;;12.05;55.14
68988;BME280;56038;46.080;11.116;2023-04-19T04:33:13;99353.03;;;12.11;55.29
68988;BME280;56038;46.080;11.116;2023-04-19T04:38:15;99359.13;;;12.12;55.69
68988;BME280;56038;46.080;11.116;2023-04-19T04:43:18;99373.72;;;12.17;55.34
68988;BME280;56038;46.080;11.116;2023-04-19T04:48:22;99360.19;;;12.08;55.88
68988;BME280;56038;46.080;11.116;2023-04-19T04:53:25;99363.09;;;12.02;55.87
68988;BME280;56038;46.080;11.116;2023-04-19T04:58:28;99371.59;;;12.07;56.02
68988;BME280;56038;46.080;11.116;2023-04-19T05:03:29;99370.66;;;12.08;56.16
68988;BME280;56038;46.080;11.116;2023-04-19T05:08:31;99360.47;;;12.02;55.51
68988;BME280;56038;46.080;11.116;2023-04-19T05:13:34;99364.56;;;12.07;55.68
68988;BME280;56038;46.080;11.116;2023-04-19T05:18:36;99365.94;;;12.16;55.37
68988;BME280;56038;46.080;11.116;2023-04-19T05:23:37;99368.09;;;12.25;54.89
68988;BME280;56038;46.080;11.116;2023-04-19T05:28:41;99357.47;;;12.28;54.52
68988;BME280;56038;46.080;11.116;2023-04-19T05:33:45;99355.34;;;12.36;54.41
68988;BME280;56038;46.080;11.116;2023-04-19T05:38:46;99357.47;;;12.47;54.12
68988;BME280;56038;46.080;11.116;2023-04-19T05:43:49;99355.00;;;12.61;54.01
68988;BME280;56038;46.080;11.116;2023-04-19T05:48:51;99350.56;;;12.63;54.11
68988;BME280;56038;46.080;11.116;2023-04-19T05:53:53;99357.88;;;12.74;53.77
68988;BME280;56038;46.080;11.116;2023-04-19T05:58:56;99354.81;;;12.83;53.40
68988;BME280;56038;46.080;11.116;2023-04-19T06:03:59;99353.50;;;12.92;52.99
68988;BME280;56038;46.080;11.116;2023-04-19T06:09:00;99352.91;;;13.04;52.64
68988;BME280;56038;46.080;11.116;2023-04-19T06:14:04;99350.59;;;13.15;52.21
68988;BME280;56038;46.080;11.116;2023-04-19T06:19:06;99359.94;;;13.21;51.53
68988;BME280;56038;46.080;11.116;2023-04-19T06:24:08;99357.03;;;13.27;51.05
68988;BME280;56038;46.080;11.116;2023-04-19T06:29:11;99351.44;;;13.33;50.84
68988;BME280;56038;46.080;11.116;2023-04-19T06:34:13;99350.72;;;13.46;50.47
68988;BME280;56038;46.080;11.116;2023-04-19T06:39:14;99354.13;;;13.48;50.18
68988;BME280;56038;46.080;11.116;2023-04-19T06:44:17;99354.13;;;13.48;50.00
68988;BME280;56038;46.080;11.116;2023-04-19T06:49:19;99355.00;;;13.65;49.57
68988;BME280;56038;46.080;11.116;2023-04-19T06:54:21;99348.69;;;13.85;48.82
68988;BME280;56038;46.080;11.116;2023-04-19T06:59:24;99352.00;;;14.04;48.60
68988;BME280;56038;46.080;11.116;2023-04-19T07:04:27;99353.97;;;14.16;48.00
68988;BME280;56038;46.080;11.116;2023-04-19T07:09:29;99349.91;;;14.26;47.60
68988;BME280;56038;46.080;11.116;2023-04-19T07:14:32;99343.66;;;14.45;47.50
68988;BME280;56038;46.080;11.116;2023-04-19T07:19:33;99343.72;;;14.59;46.95
68988;BME280;56038;46.080;11.116;2023-04-19T07:24:35;99335.63;;;14.78;46.38
68988;BME280;56038;46.080;11.116;2023-04-19T07:29:40;99331.38;;;15.05;46.27
68988;BME280;56038;46.080;11.116;2023-04-19T07:34:42;99333.47;;;15.28;45.53
68988;BME280;56038;46.080;11.116;2023-04-19T07:39:45;99324.31;;;15.50;44.63
68988;BME280;56038;46.080;11.116;2023-04-19T07:44:48;99303.53;;;15.60;44.36
68988;BME280;56038;46.080;11.116;2023-04-19T07:49:51;99309.72;;;15.58;43.85
68988;BME280;56038;46.080;11.116;2023-04-19T07:54:53;99304.13;;;15.65;43.94
68988;BME280;56038;46.080;11.116;2023-04-19T07:59:56;99304.28;;;15.76;43.85
68988;BME280;56038;46.080;11.116;2023-04-19T08:04:58;99305.22;;;15.89;43.49
68988;BME280;56038;46.080;11.116;2023-04-19T08:10:01;99293.59;;;16.06;42.98
68988;BME280;56038;46.080;11.116;2023-04-19T08:15:06;99289.41;;;16.30;42.26
68988;BME280;56038;46.080;11.116;2023-04-19T08:20:09;99284.63;;;16.50;42.22
68988;BME280;56038;46.080;11.116;2023-04-19T08:25:13;99280.69;;;16.69;41.81
68988;BME280;56038;46.080;11.116;2023-04-19T08:30:17;99276.50;;;16.80;40.97
68988;BME280;56038;46.080;11.116;2023-04-19T08:35:19;99272.28;;;16.50;41.64
68988;BME280;56038;46.080;11.116;2023-04-19T08:40:21;99265.09;;;16.52;41.19
68988;BME280;56038;46.080;11.116;2023-04-19T08:45:25;99255.97;;;16.58;40.74
68988;BME280;56038;46.080;11.116;2023-04-19T08:50:27;99254.78;;;16.89;40.70
68988;BME280;56038;46.080;11.116;2023-04-19T08:55:29;99244.53;;;16.97;40.42
68988;BME280;56038;46.080;11.116;2023-04-19T09:00:38;99234.09;;;16.95;39.90
68988;BME280;56038;46.080;11.116;2023-04-19T09:05:49;99219.50;;;17.28;39.93
68988;BME280;56038;46.080;11.116;2023-04-19T09:11:00;99212.16;;;17.57;40.11
68988;BME280;56038;46.080;11.116;2023-04-19T09:16:03;99203.69;;;18.25;39.11
68988;BME280;56038;46.080;11.116;2023-04-19T09:21:06;99187.41;;;18.42;37.58
68988;BME280;56038;46.080;11.116;2023-04-19T09:26:12;99185.38;;;18.81;37.35
68988;BME280;56038;46.080;11.116;2023-04-19T09:31:15;99172.72;;;18.38;38.12
68988;BME280;56038;46.080;11.116;2023-04-19T09:36:26;99167.59;;;18.59;36.51
68988;BME280;56038;46.080;11.116;2023-04-19T09:41:28;99156.97;;;18.83;36.08
68988;BME280;56038;46.080;11.116;2023-04-19T09:46:34;99148.09;;;18.84;36.25
68988;BME280;56038;46.080;11.116;2023-04-19T09:51:39;99141.09;;;18.83;35.77
68988;BME280;56038;46.080;11.116;2023-04-19T09:56:41;99129.00;;;18.56;37.01
68988;BME280;56038;46.080;11.116;2023-04-19T10:06:54;99115.31;;;18.51;36.29
68988;BME280;56038;46.080;11.116;2023-04-19T10:23:11;99082.16;;;18.70;36.04
68988;BME280;56038;46.080;11.116;2023-04-19T10:28:14;99071.28;;;19.18;34.34
68988;BME280;56038;46.080;11.116;2023-04-19T10:33:23;99068.38;;;20.07;33.51
68988;BME280;56038;46.080;11.116;2023-04-19T10:38:44;99051.78;;;19.19;34.56
68988;BME280;56038;46.080;11.116;2023-04-19T10:44:08;99047.66;;;19.37;33.73
68988;BME280;56038;46.080;11.116;2023-04-19T10:49:10;99039.38;;;19.94;33.99
68988;BME280;56038;46.080;11.116;2023-04-19T10:54:29;99022.81;;;20.02;33.71
68988;BME280;56038;46.080;11.116;2023-04-19T10:59:32;99010.22;;;19.94;34.56
68988;BME280;56038;46.080;11.116;2023-04-19T11:05:01;98997.00;;;20.25;33.96
68988;BME280;56038;46.080;11.116;2023-04-19T11:10:05;98989.63;;;21.09;33.37
68988;BME280;56038;46.080;11.116;2023-04-19T11:15:08;98984.31;;;21.09;32.50
68988;BME280;56038;46.080;11.116;2023-04-19T11:20:11;98981.13;;;20.65;33.40
68988;BME280;56038;46.080;11.116;2023-04-19T11:25:16;98966.59;;;20.59;34.05
68988;BME280;56038;46.080;11.116;2023-04-19T11:30:20;98953.69;;;21.14;32.94
68988;BME280;56038;46.080;11.116;2023-04-19T11:35:23;98958.22;;;20.54;33.92
68988;BME280;56038;46.080;11.116;2023-04-19T11:40:26;98947.66;;;20.74;34.20
68988;BME280;56038;46.080;11.116;2023-04-19T11:45:30;98947.81;;;20.91;33.89
68988;BME280;56038;46.080;11.116;2023-04-19T11:50:34;98935.88;;;20.57;34.31
68988;BME280;56038;46.080;11.116;2023-04-19T11:55:37;98921.81;;;20.76;33.99
68988;BME280;56038;46.080;11.116;2023-04-19T12:00:45;98922.56;;;21.16;31.91
68988;BME280;56038;46.080;11.116;2023-04-19T12:06:00;98906.53;;;23.04;30.39
68988;BME280;56038;46.080;11.116;2023-04-19T12:11:11;98908.06;;;22.61;29.32
68988;BME280;56038;46.080;11.116;2023-04-19T12:16:13;98900.84;;;21.79;31.42
68988;BME280;56038;46.080;11.116;2023-04-19T12:21:25;98892.06;;;21.40;31.72
68988;BME280;56038;46.080;11.116;2023-04-19T12:26:29;98897.34;;;20.72;32.69
68988;BME280;56038;46.080;11.116;2023-04-19T12:31:32;98883.41;;;20.40;34.10
68988;BME280;56038;46.080;11.116;2023-04-19T12:36:33;98878.50;;;20.25;34.46
68988;BME280;56038;46.080;11.116;2023-04-19T12:41:36;98858.72;;;19.99;33.76
68988;BME280;56038;46.080;11.116;2023-04-19T12:46:38;98868.81;;;20.55;33.68
68988;BME280;56038;46.080;11.116;2023-04-19T12:56:51;98843.75;;;22.38;30.89
68988;BME280;56038;46.080;11.116;2023-04-19T13:01:54;98829.06;;;23.93;29.03
68988;BME280;56038;46.080;11.116;2023-04-19T13:06:57;98827.75;;;23.63;29.93
68988;BME280;56038;46.080;11.116;2023-04-19T13:12:00;98825.13;;;22.83;30.06
68988;BME280;56038;46.080;11.116;2023-04-19T13:17:02;98818.59;;;22.05;30.22
68988;BME280;56038;46.080;11.116;2023-04-19T13:22:05;98804.69;;;21.37;30.44
68988;BME280;56038;46.080;11.116;2023-04-19T13:27:08;98802.88;;;21.37;30.72
68988;BME280;56038;46.080;11.116;2023-04-19T13:32:10;98786.94;;;21.18;30.55
68988;BME280;56038;46.080;11.116;2023-04-19T13:37:12;98784.75;;;20.84;30.57
68988;BME280;56038;46.080;11.116;2023-04-19T13:47:25;98778.47;;;20.76;30.54
68988;BME280;56038;46.080;11.116;2023-04-19T13:52:27;98766.72;;;20.59;30.94
68988;BME280;56038;46.080;11.116;2023-04-19T13:57:30;98760.03;;;20.84;31.15
68988;BME280;56038;46.080;11.116;2023-04-19T14:02:33;98758.22;;;20.84;31.07
68988;BME280;56038;46.080;11.116;2023-04-19T14:07:37;98745.28;;;21.09;30.94
68988;BME280;56038;46.080;11.116;2023-04-19T14:12:39;98749.75;;;21.18;30.92
68988;BME280;56038;46.080;11.116;2023-04-19T14:17:42;98733.59;;;20.82;31.35
68988;BME280;56038;46.080;11.116;2023-04-19T14:22:44;98737.28;;;20.52;31.92
68988;BME280;56038;46.080;11.116;2023-04-19T14:27:46;98731.63;;;20.26;32.54
68988;BME280;56038;46.080;11.116;2023-04-19T14:32:49;98729.31;;;19.83;33.72
68988;BME280;56038;46.080;11.116;2023-04-19T14:37:51;98714.38;;;19.42;35.72
68988;BME280;56038;46.080;11.116;2023-04-19T14:42:53;98713.84;;;19.18;36.23
68988;BME280;56038;46.080;11.116;2023-04-19T14:47:56;98718.09;;;19.09;36.32
68988;BME280;56038;46.080;11.116;2023-04-19T14:52:58;98703.47;;;19.05;36.10
68988;BME280;56038;46.080;11.116;2023-04-19T14:58:00;98699.69;;;19.28;35.56
68988;BME280;56038;46.080;11.116;2023-04-19T15:03:03;98699.91;;;19.46;35.89
68988;BME280;56038;46.080;11.116;2023-04-19T15:08:08;98701.56;;;19.47;36.26
68988;BME280;56038;46.080;11.116;2023-04-19T15:13:09;98694.88;;;19.43;36.01
68988;BME280;56038;46.080;11.116;2023-04-19T15:18:13;98693.81;;;19.55;35.75
68988;BME280;56038;46.080;11.116;2023-04-19T15:23:15;98698.59;;;19.61;35.72
68988;BME280;56038;46.080;11.116;2023-04-19T15:28:17;98698.03;;;19.58;35.76
68988;BME280;56038;46.080;11.116;2023-04-19T15:33:20;98704.94;;;19.49;35.99
68988;BME280;56038;46.080;11.116;2023-04-19T15:38:23;98695.38;;;19.27;36.63
68988;BME280;56038;46.080;11.116;2023-04-19T15:43:25;98696.84;;;19.20;36.72
68988;BME280;56038;46.080;11.116;2023-04-19T15:48:28;98697.78;;;19.09;36.84
68988;BME280;56038;46.080;11.116;2023-04-19T15:53:30;98706.69;;;19.08;36.80
68988;BME280;56038;46.080;11.116;2023-04-19T15:58:31;98702.13;;;19.10;36.89
68988;BME280;56038;46.080;11.116;2023-04-19T16:03:34;98703.66;;;19.13;37.05
68988;BME280;56038;46.080;11.116;2023-04-19T16:08:36;98704.44;;;19.04;36.97
68988;BME280;56038;46.080;11.116;2023-04-19T16:13:38;98706.50;;;19.00;37.08
68988;BME280;56038;46.080;11.116;2023-04-19T16:18:41;98706.66;;;18.99;36.94
68988;BME280;56038;46.080;11.116;2023-04-19T16:23:43;98705.69;;;19.00;37.01
68988;BME280;56038;46.080;11.116;2023-04-19T16:28:45;98706.31;;;18.92;37.54
68988;BME280;56038;46.080;11.116;2023-04-19T16:33:48;98707.56;;;18.88;38.19
68988;BME280;56038;46.080;11.116;2023-04-19T16:38:50;98711.44;;;18.84;38.48
68988;BME280;56038;46.080;11.116;2023-04-19T16:43:52;98710.66;;;18.72;39.50
68988;BME280;56038;46.080;11.116;2023-04-19T16:48:55;98704.78;;;18.69;39.25
68988;BME280;56038;46.080;11.116;2023-04-19T16:53:58;98711.19;;;18.34;40.89
68988;BME280;56038;46.080;11.116;2023-04-19T16:59:00;98701.16;;;18.17;40.91
68988;BME280;56038;46.080;11.116;2023-04-19T17:04:05;98701.47;;;17.91;42.53
68988;BME280;56038;46.080;11.116;2023-04-19T17:09:07;98694.78;;;17.43;43.75
68988;BME280;56038;46.080;11.116;2023-04-19T17:14:08;98698.38;;;17.08;46.55
68988;BME280;56038;46.080;11.116;2023-04-19T17:19:11;98709.41;;;16.91;46.01
68988;BME280;56038;46.080;11.116;2023-04-19T17:24:13;98699.56;;;16.93;45.46
68988;BME280;56038;46.080;11.116;2023-04-19T17:29:15;98707.31;;;16.72;46.76
68988;BME280;56038;46.080;11.116;2023-04-19T17:34:18;98702.81;;;16.61;46.81
68988;BME280;56038;46.080;11.116;2023-04-19T17:39:20;98714.56;;;16.57;46.81
68988;BME280;56038;46.080;11.116;2023-04-19T17:44:22;98723.41;;;16.56;46.86
68988;BME280;56038;46.080;11.116;2023-04-19T17:49:25;98728.69;;;16.56;46.71
68988;BME280;56038;46.080;11.116;2023-04-19T17:54:27;98728.91;;;16.53;46.68
68988;BME280;56038;46.080;11.116;2023-04-19T17:59:29;98729.50;;;16.45;46.83
68988;BME280;56038;46.080;11.116;2023-04-19T18:04:32;98725.91;;;16.23;47.74
68988;BME280;56038;46.080;11.116;2023-04-19T18:09:33;98744.31;;;16.11;47.71
68988;BME280;56038;46.080;11.116;2023-04-19T18:14:35;98748.00;;;15.85;49.14
68988;BME280;56038;46.080;11.116;2023-04-19T18:19:38;98751.91;;;15.79;48.90
68988;BME280;56038;46.080;11.116;2023-04-19T18:24:40;98753.84;;;15.65;51.11
68988;BME280;56038;46.080;11.116;2023-04-19T18:29:43;98756.56;;;15.50;50.46
68988;BME280;56038;46.080;11.116;2023-04-19T18:34:46;98761.84;;;15.38;52.98
68988;BME280;56038;46.080;11.116;2023-04-19T18:39:47;98763.19;;;15.43;50.34
68988;BME280;56038;46.080;11.116;2023-04-19T18:44:49;98775.63;;;15.41;50.85
68988;BME280;56038;46.080;11.116;2023-04-19T18:49:52;98779.94;;;15.29;50.86
68988;BME280;56038;46.080;11.116;2023-04-19T18:54:54;98781.84;;;15.15;51.34
68988;BME280;56038;46.080;11.116;2023-04-19T18:59:57;98797.28;;;15.07;51.63
68988;BME280;56038;46.080;11.116;2023-04-19T19:05:01;98804.84;;;14.98;51.95
68988;BME280;56038;46.080;11.116;2023-04-19T19:10:05;98806.22;;;14.91;51.77
68988;BME280;56038;46.080;11.116;2023-04-19T19:15:09;98812.41;;;14.90;52.01
68988;BME280;56038;46.080;11.116;2023-04-19T19:20:12;98823.03;;;14.89;51.56
68988;BME280;56038;46.080;11.116;2023-04-19T19:25:14;98819.00;;;14.71;53.16
68988;BME280;56038;46.080;11.116;2023-04-19T19:30:16;98830.63;;;14.66;53.52
68988;BME280;56038;46.080;11.116;2023-04-19T19:35:22;98828.78;;;14.68;52.89
68988;BME280;56038;46.080;11.116;2023-04-19T19:40:24;98838.53;;;14.66;52.93
68988;BME280;56038;46.080;11.116;2023-04-19T19:45:26;98840.53;;;14.63;53.77
68988;BME280;56038;46.080;11.116;2023-04-19T19:50:30;98834.84;;;14.56;53.06
68988;BME280;56038;46.080;11.116;2023-04-19T19:55:33;98838.63;;;14.52;53.51
68988;BME280;56038;46.080;11.116;2023-04-19T20:00:35;98838.25;;;14.44;53.70
68988;BME280;56038;46.080;11.116;2023-04-19T20:05:52;98843.97;;;14.36;54.88
68988;BME280;56038;46.080;11.116;2023-04-19T20:10:58;98837.50;;;14.28;54.19
68988;BME280;56038;46.080;11.116;2023-04-19T20:16:00;98842.56;;;14.31;54.00
68988;BME280;56038;46.080;11.116;2023-04-19T20:21:04;98843.16;;;14.22;54.64
68988;BME280;56038;46.080;11.116;2023-04-19T20:26:06;98840.25;;;14.26;53.84
68988;BME280;56038;46.080;11.116;2023-04-19T20:31:10;98856.84;;;14.27;53.97
68988;BME280;56038;46.080;11.116;2023-04-19T20:36:15;98859.41;;;14.14;55.55
68988;BME280;56038;46.080;11.116;2023-04-19T20:41:17;98857.25;;;14.06;58.19
68988;BME280;56038;46.080;11.116;2023-04-19T20:46:19;98855.94;;;13.99;55.15
68988;BME280;56038;46.080;11.116;2023-04-19T20:51:23;98859.81;;;13.94;55.93
68988;BME280;56038;46.080;11.116;2023-04-19T20:56:24;98855.84;;;13.87;56.14
68988;BME280;56038;46.080;11.116;2023-04-19T21:01:27;98864.03;;;13.82;55.97
68988;BME280;56038;46.080;11.116;2023-04-19T21:06:31;98867.28;;;13.86;56.08
68988;BME280;56038;46.080;11.116;2023-04-19T21:11:33;98864.50;;;13.89;57.99
68988;BME280;56038;46.080;11.116;2023-04-19T21:16:38;98867.78;;;13.78;58.52
68988;BME280;56038;46.080;11.116;2023-04-19T21:21:42;98872.53;;;13.86;56.58
68988;BME280;56038;46.080;11.116;2023-04-19T21:26:44;98865.34;;;13.75;56.97
68988;BME280;56038;46.080;11.116;2023-04-19T21:31:46;98870.50;;;13.76;56.65
68988;BME280;56038;46.080;11.116;2023-04-19T21:36:49;98876.50;;;13.78;58.17
68988;BME280;56038;46.080;11.116;2023-04-19T21:41:51;98872.84;;;13.81;56.45
68988;BME280;56038;46.080;11.116;2023-04-19T21:46:53;98873.97;;;13.77;56.72
68988;BME280;56038;46.080;11.116;2023-04-19T21:51:56;98873.78;;;13.66;58.06
68988;BME280;56038;46.080;11.116;2023-04-19T21:56:58;98868.81;;;13.75;58.16
68988;BME280;56038;46.080;11.116;2023-04-19T22:02:00;98875.56;;;13.79;57.15
68988;BME280;56038;46.080;11.116;2023-04-19T22:07:02;98873.88;;;13.78;57.23
68988;BME280;56038;46.080;11.116;2023-04-19T22:12:05;98872.00;;;13.81;57.27
68988;BME280;56038;46.080;11.116;2023-04-19T22:17:08;98865.44;;;13.73;57.85
68988;BME280;56038;46.080;11.116;2023-04-19T22:22:13;98871.16;;;13.66;58.29
68988;BME280;56038;46.080;11.116;2023-04-19T22:27:14;98873.47;;;13.56;58.89
68988;BME280;56038;46.080;11.116;2023-04-19T22:32:16;98879.00;;;13.52;59.16
68988;BME280;56038;46.080;11.116;2023-04-19T22:37:19;98873.84;;;13.50;59.07
68988;BME280;56038;46.080;11.116;2023-04-19T22:42:21;98878.44;;;13.46;60.53
68988;BME280;56038;46.080;11.116;2023-04-19T22:47:22;98881.34;;;13.42;59.87
68988;BME280;56038;46.080;11.116;2023-04-19T22:52:25;98880.56;;;13.40;60.08
68988;BME280;56038;46.080;11.116;2023-04-19T22:57:27;98876.16;;;13.40;59.96
68988;BME280;56038;46.080;11.116;2023-04-19T23:02:28;98874.38;;;13.41;59.80
68988;BME280;56038;46.080;11.116;2023-04-19T23:07:31;98860.06;;;13.46;59.34
68988;BME280;56038;46.080;11.116;2023-04-19T23:12:33;98859.13;;;13.47;59.21
68988;BME280;56038;46.080;11.116;2023-04-19T23:17:36;98858.38;;;13.45;61.16
68988;BME280;56038;46.080;11.116;2023-04-19T23:22:40;98850.78;;;13.41;59.79
68988;BME280;56038;46.080;11.116;2023-04-19T23:27:42;98853.34;;;13.42;59.77
68988;BME280;56038;46.080;11.116;2023-04-19T23:32:44;98847.25;;;13.42;60.56
68988;BME280;56038;46.080;11.116;2023-04-19T23:37:47;98848.00;;;13.44;59.99
68988;BME280;56038;46.080;11.116;2023-04-19T23:42:49;98838.91;;;13.49;60.00
68988;BME280;56038;46.080;11.116;2023-04-19T23:47:51;98835.97;;;13.40;61.48
68988;BME280;56038;46.080;11.116;2023-04-19T23:52:54;98832.50;;;13.39;60.65
68988;BME280;56038;46.080;11.116;2023-04-19T23:57:55;98823.22;;;13.34;61.74
